Località Giorno Ora Temp. Umid. Relat. Dew Point Press. Atm. Velocità Vento Direz. Vento Precip. Temp.
Min
Temp.
Max
Abano (PD) 14/08/18 21.45 20.2 °C 88 % 18.1 °C 1012.5 hPa 0.0 Km/h ENE 0.8 mm  20.2 °C 26.5 °C
Acquapendente (VT) 14/08/18 21.48 19.6 °C 85 % 17.0 °C 1012.6 hPa 11.2 Km/h NNW 24.4 mm  16.6 °C 24.2 °C
Acquaviva delle Fonti (BA) 14/08/18 21.48 20.7 °C 89 % 18.8 °C 1012.2 hPa 3.2 Km/h WNW 2.6 mm  20.1 °C 35.1 °C
Ala (TN) 14/08/18 21.48 19.1 °C 89 % 17.2 °C 1012.8 hPa 0.0 Km/h E 6.2 mm  18.7 °C 24.4 °C
Alleghe (BL) 14/08/18 21.48 13.6 °C 92 % 12.3 °C 1004.8 hPa 0.0 Km/h SE 5.1 mm  12.4 °C 20.7 °C
Alleghe Lago (BL) 14/08/18 21.48 14.6 °C 92 % 13.3 °C 1017.7 hPa 6.1 Km/h E 1.5 mm  13.3 °C 20.1 °C
Ancona (AN) 14/08/18 21.35 23.1 °C 82 % 19.8 °C 1011.9 hPa 6.4 Km/h WNW 0.6 mm  21.8 °C 29.4 °C
Ancona loc. Brecce Bianche (AN) 14/08/18 21.39 22.7 °C 67 % 16.3 °C 1017.8 hPa 6.4 Km/h NW 0.0 mm  21.8 °C 28.2 °C
Ardea (RM) 14/08/18 18.29 26.1 °C 76 % 21.5 °C 1011.2 hPa 0.0 Km/h SE 5.1 mm  21.3 °C 31.3 °C
Arenzano (GE) 14/08/18 21.48 23.2 °C 77 % 18.9 °C 1012.2 hPa 4.8 Km/h NNE 32.4 mm  20.3 °C 26.1 °C
Arquà Polesine (RO) 14/08/18 21.48 21.4 °C 79 % 17.6 °C 1015.0 hPa 1.6 Km/h ESE 4.6 mm  19.6 °C 28.8 °C
Arzignano loc. Castello (VI) 14/08/18 21.00 21.9 °C 81 % 18.5 °C 1011.3 hPa 0.0 Km/h W 2.0 mm  18.2 °C 24.1 °C
Arzignano Pugnello (VI) 14/08/18 21.48 19.5 °C 86 % 17.2 °C 1012.5 hPa 0.0 Km/h ENE 1.6 mm  17.0 °C 22.3 °C
Arzignano San Bortolo (VI) 14/08/18 21.39 20.4 °C 83 % 17.4 °C 1012.1 hPa 9.7 Km/h NE 0.5 mm  18.6 °C 23.8 °C
Arzignano Tezze (VI) 08/08/18 07.37 23.8 °C 88 % 21.7 °C 1013.1 hPa 0.0 Km/h NNW 0.0 mm  21.6 °C 24.1 °C
Avio (TN) 14/08/18 21.48 20.1 °C 90 % 18.4 °C 1013.4 hPa 0.0 Km/h SSE 3.9 mm  20.0 °C 25.3 °C
Badia Calavena loc. San Valentino (VR) 14/08/18 21.48 16.1 °C 89 % 14.3 °C 1011.2 hPa 24.1 Km/h NNE 1.8 mm  15.7 °C 19.8 °C
Barbara (AN) 14/08/18 21.48 20.9 °C 73 % 15.9 °C 1013.9 hPa 2.9 Km/h NW 9.8 mm  19.9 °C 27.9 °C
Barcellona P.G. Centro (ME) 14/08/18 21.48 26.9 °C 68 % 20.5 °C 1012.3 hPa 3.2 Km/h E 0.0 mm  24.3 °C 32.0 °C
Barcellona Pozzo di Gotto (ME) 14/08/18 21.48 26.6 °C 64 % 19.2 °C 1011.1 hPa 3.0 Km/h SSW 0.0 mm  24.8 °C 31.0 °C
Bardolino (VR) 14/08/18 21.48 20.5 °C 83 % 17.8 °C 1005.9 hPa 21.0 Km/h ENE 5.6 mm  19.7 °C 23.7 °C
Beccacivetta (VR) 12/08/18 19.59 27.9 °C 58 % 18.9 °C 1013.4 hPa 0.0 Km/h SW 0.0 mm  22.7 °C 31.8 °C
Bellaria Igea Marina (RN) 14/08/18 21.48 19.3 °C 92 % 17.9 °C 1012.1 hPa 6.4 Km/h W 11.8 mm  18.7 °C 28.4 °C
Bellaria Igea Marina2 (RN) 14/08/18 21.48 19.5 °C 94 % 18.5 °C 1011.5 hPa 8.0 Km/h W 16.2 mm  19.0 °C 28.2 °C
Bellaria Igea Marina3 (RN) 14/08/18 21.48 19.0 °C 77 % 14.9 °C 1010.4 hPa 9.0 Km/h NW 3.1 mm  18.6 °C 29.2 °C
Belluno Castion (BL) 14/08/18 21.30 17.9 °C 91 % 16.5 °C 1013.0 hPa 0.0 Km/h --- 0.8 mm  16.2 °C 26.4 °C
Bernate Ticino fraz. Casate (MI) 14/08/18 21.48 22.7 °C 80 % 19.1 °C 1010.5 hPa 0.0 Km/h N 0.0 mm  17.1 °C 28.6 °C
Besenello (TN) 14/08/18 21.48 19.6 °C 83 % 16.6 °C 1014.3 hPa 0.0 Km/h WSW 1.8 mm  18.3 °C 26.3 °C
Bientina (PI) 14/08/18 21.48 22.3 °C 67 % 15.9 °C 1011.2 hPa 1.1 Km/h E 5.1 mm  19.5 °C 28.7 °C
Bisignano (CS) 14/08/18 21.48 25.6 °C 52 % 15.0 °C 1010.3 hPa 5.5 Km/h SW 0.0 mm  23.1 °C 34.0 °C
Bitti (NU) 14/08/18 21.48 19.3 °C 84 % 16.5 °C 1015.8 hPa 0.0 Km/h --- 12.4 mm  18.4 °C 28.3 °C
Bolognano di Arco (TN) 14/08/18 21.48 21.8 °C 85 % 19.1 °C 1012.7 hPa 0.0 Km/h SSW 0.0 mm  19.6 °C 25.7 °C
Bonorva (SS) 14/08/18 21.40 21.1 °C 79 % 17.3 °C 1012.7 hPa 3.2 Km/h SSW 0.0 mm  19.1 °C 26.9 °C
Borgo Valsugana (TN) 14/08/18 21.39 18.5 °C 91 % 17.0 °C 1013.8 hPa 0.0 Km/h SSE 1.0 mm  17.2 °C 25.0 °C
Borore (NU) 14/08/18 21.49 20.9 °C 84 % 18.1 °C 1012.1 hPa 7.0 Km/h W 0.2 mm  18.8 °C 29.6 °C
Brendola (VI) 14/08/18 21.47 21.5 °C 99 % 21.3 °C 999.6 hPa 1.1 Km/h SW 0.6 mm  19.6 °C 33.2 °C
Brolo c/da Parrazzà (ME) 14/08/18 21.45 22.7 °C 80 % 19.0 °C 1012.9 hPa 14.0 Km/h SE 0.4 mm  22.2 °C 29.9 °C
Brugine2 (PD) 14/08/18 21.37 19.3 °C 92 % 18.0 °C 1013.5 hPa 0.6 Km/h ENE 22.0 mm  18.8 °C 27.2 °C
Budoia (PN) 14/08/18 21.46 18.4 °C 90 % 16.8 °C 1013.9 hPa 1.6 Km/h NW 8.0 mm  18.4 °C 28.1 °C
Ca' Gallo (PU) 14/08/18 21.39 21.0 °C 70 % 15.3 °C 1008.4 hPa 0.0 Km/h WSW 0.0 mm  20.6 °C 28.8 °C
Calcinato (BS) 14/08/18 21.48 21.0 °C 89 % 19.1 °C 1014.6 hPa 0.0 Km/h SE 1.3 mm  19.9 °C 22.8 °C
Calliano (TN) 14/08/18 21.48 18.7 °C 91 % 17.2 °C 1012.9 hPa 0.0 Km/h SSE 1.4 mm  17.8 °C 26.6 °C
Cammarata (AG) 14/08/18 21.48 20.6 °C 56 % 11.5 °C 1012.0 hPa 7.0 Km/h NNE 8.4 mm  19.6 °C 28.5 °C
Campoformido (UD) 14/08/18 21.47 18.7 °C 73 % 13.7 °C 1014.1 hPa 1.4 Km/h NNE 14.6 mm  18.6 °C 28.6 °C
Capodimonte (VT) 14/08/18 21.45 21.4 °C 84 % 18.6 °C 1012.2 hPa 0.2 Km/h SSW 20.0 mm  17.8 °C 25.1 °C
Caprarola Centro Storico (VT) 14/08/18 21.48 19.1 °C 88 % 17.1 °C 1014.0 hPa 0.0 Km/h SW 15.0 mm  16.2 °C 23.0 °C
Carceri (PD) 14/08/18 21.29 19.6 °C 89 % 17.8 °C 1012.8 hPa 30.6 Km/h NE 4.8 mm  19.6 °C 27.3 °C
Carmignano loc. Seano (PO) 14/08/18 21.49 20.8 °C 82 % 17.6 °C 1012.0 hPa 3.0 Km/h SW 3.0 mm  19.7 °C 28.1 °C
Carpi (MO) 14/08/18 21.48 21.9 °C 79 % 18.1 °C 1012.4 hPa 0.0 Km/h NE 0.5 mm  20.4 °C 28.1 °C
Cartigliano (VI) 14/08/18 21.46 20.1 °C 83 % 17.1 °C 1013.0 hPa 3.2 Km/h NE 0.2 mm  18.5 °C 27.3 °C
Cassano Magnago (VA) 14/08/18 21.39 22.4 °C 81 % 19.0 °C 1011.4 hPa 0.0 Km/h S 0.3 mm  17.1 °C 29.9 °C
Castel d'Azzano (VR) 14/08/18 21.35 21.7 °C 89 % 19.8 °C 619.4 hPa 0.0 Km/h --- 3.0 mm  20.6 °C 23.7 °C
Castelferro (AL) 14/08/18 21.48 23.5 °C 75 % 18.8 °C 1012.0 hPa 0.0 Km/h S 0.2 mm  17.7 °C 30.2 °C
Castelfranco Veneto (TV) 14/08/18 21.40 20.5 °C 90 % 18.8 °C 1013.4 hPa 0.0 Km/h NNE 0.2 mm  19.2 °C 28.2 °C
Castelgomberto (VI) 14/08/18 21.49 20.8 °C 79 % 17.1 °C 1013.5 hPa 8.9 Km/h NE 1.4 mm  18.6 °C 25.1 °C
Castelnuovo V.C. (PI) 14/08/18 21.40 17.2 °C 96 % 16.6 °C 1012.2 hPa 0.0 Km/h WNW 9.8 mm  15.6 °C 25.3 °C
Castiglione del Lago (PG) 14/08/18 21.40 20.8 °C 88 % 18.7 °C 1013.3 hPa 0.0 Km/h --- 6.4 mm  18.3 °C 26.8 °C
Cefalù (PA) 14/08/18 21.48 25.8 °C 66 % 19.0 °C 1009.8 hPa 2.2 Km/h SSE 0.0 mm  23.9 °C 28.9 °C
Cerea (VR) 14/08/18 20.25 21.7 °C 93 % 20.5 °C 1011.8 hPa 3.2 Km/h SW 7.3 mm  20.3 °C 25.6 °C
Cerea2 (VR) 14/08/18 21.30 21.6 °C 86 % 19.1 °C 1014.3 hPa 5.0 Km/h NW 11.2 mm  20.3 °C 24.7 °C
Cima Grappa (TV) 14/08/18 21.48 10.9 °C 95 % 10.2 °C 1015.5 hPa 5.4 Km/h NNE 5.4 mm  10.4 °C 16.2 °C
Cismon del Grappa loc. Corlo (VI) 14/08/18 21.08 17.9 °C 91 % 16.4 °C 1015.7 hPa 3.0 Km/h SE 3.3 mm  17.4 °C 25.8 °C
Civita Castellana (VT) 14/08/18 21.49 20.0 °C 86 % 17.6 °C 1012.2 hPa 5.6 Km/h NNE 12.4 mm  17.5 °C 25.3 °C
Codroipo (UD) 14/08/18 21.48 19.3 °C 96 % 18.7 °C 1013.3 hPa 6.6 Km/h NW 23.8 mm  19.3 °C 30.2 °C
Cogollo del Cengio (VI) 14/08/18 21.45 17.7 °C 99 % 17.5 °C 1014.2 hPa 4.9 Km/h NW 0.6 mm  17.6 °C 23.9 °C
Cologna Veneta Sant'Andrea (VR) 14/08/18 21.40 21.3 °C 78 % 17.3 °C 1013.6 hPa 8.0 Km/h ENE 5.6 mm  19.4 °C 25.9 °C
Colognola ai Colli (VR) 14/08/18 21.40 21.1 °C 89 % 19.2 °C 1013.7 hPa 17.7 Km/h N 0.6 mm  18.8 °C 23.7 °C
Contrada Dosso Gervasio (VR) 14/08/18 21.45 17.0 °C 75 % 12.2 °C 1012.3 hPa 6.0 Km/h NNW 1.6 mm  15.3 °C 19.7 °C
Corrubio di S. Anna d'Alfaedo (VR) 14/08/18 21.45 16.3 °C 88 % 14.3 °C 1014.4 hPa 0.0 Km/h NNE 5.2 mm  15.9 °C 20.1 °C
Cosseria Lidora (SV) 14/08/18 21.45 19.1 °C 90 % 17.4 °C 1011.8 hPa 4.8 Km/h WNW 0.6 mm  16.7 °C 25.8 °C
Costa di Vittorio Veneto (TV) 14/08/18 21.39 20.1 °C 90 % 18.4 °C 1012.4 hPa 0.0 Km/h WNW 1.0 mm  18.6 °C 27.3 °C
Costa Volpino (BG) 14/08/18 21.42 20.4 °C 78 % 16.4 °C 1009.9 hPa 0.9 Km/h ESE 0.0 mm  16.4 °C 25.2 °C
Crespano del Grappa2 (TV) 14/08/18 21.39 19.7 °C 81 % 16.3 °C 1011.1 hPa 0.0 Km/h NNE 13.0 mm  18.1 °C 26.1 °C
Dorno (PV) 14/08/18 21.49 23.0 °C 84 % 20.1 °C 1012.1 hPa 0.0 Km/h ESE 0.0 mm  19.2 °C 28.2 °C
Dossobuono (VR) 14/08/18 21.49 21.7 °C 90 % 20.0 °C 1014.5 hPa 0.0 Km/h SW 2.4 mm  20.4 °C 23.8 °C
Erbezzo Passo Fittanze (VR) 14/08/18 21.40 12.8 °C 90 % 11.2 °C 1015.5 hPa 1.8 Km/h N 7.9 mm  12.3 °C 18.6 °C
Falzè di Piave (TV) 11/08/18 03.27 20.8 °C 87 % 18.6 °C 1018.1 hPa 0.0 Km/h --- 0.0 mm  20.8 °C 22.2 °C
Farra di Soligo (TV) 14/08/18 21.49 19.3 °C 75 % 14.8 °C 1013.1 hPa 0.7 Km/h NW 0.7 mm  17.6 °C 28.3 °C
Feltre Celarda (BL) 14/08/18 21.49 18.1 °C 99 % 17.9 °C 1013.9 hPa 0.0 Km/h WSW 0.9 mm  16.6 °C 26.9 °C
Ferrara di M.B. (VR) 14/08/18 21.45 14.4 °C 86 % 12.1 °C 1010.3 hPa 6.4 Km/h NNW 7.6 mm  12.8 °C 17.6 °C
Fiavè loc. Ballino (TN) 14/08/18 21.48 17.6 °C 92 % 16.3 °C 1012.6 hPa 0.0 Km/h W 1.0 mm  15.8 °C 21.4 °C
Filo di Argenta (FE) 14/08/18 21.45 17.9 °C 94 % 16.9 °C 1013.5 hPa 0.0 Km/h ESE 49.6 mm  17.6 °C 28.9 °C
Fogliano Redipuglia (GO) 14/08/18 21.49 20.4 °C 87 % 18.2 °C 1013.9 hPa 14.0 Km/h E 17.1 mm  19.5 °C 30.1 °C
Foligno (PG) 14/08/18 21.30 20.7 °C 83 % 17.7 °C 1011.8 hPa 3.2 Km/h ENE 10.2 mm  18.4 °C 26.8 °C
Fontanafredda (PN) 14/08/18 21.49 18.9 °C 94 % 17.9 °C 1013.5 hPa 0.0 Km/h NE 3.6 mm  18.9 °C 28.2 °C
Fumane Contrada La Ca (VR) 14/08/18 21.39 17.2 °C 95 % 16.4 °C 1017.2 hPa 3.2 Km/h NW 7.9 mm  17.2 °C 21.8 °C
Gaggiano (MI) 14/08/18 21.48 23.6 °C 80 % 20.0 °C 1012.2 hPa 3.0 Km/h SSE 0.0 mm  18.1 °C 27.1 °C
Gallio (VI) 14/08/18 21.35 13.3 °C 95 % 12.6 °C 1013.9 hPa 0.0 Km/h N 14.5 mm  12.6 °C 20.4 °C
Gardolo (TN) 14/08/18 21.48 18.3 °C 91 % 16.8 °C 1013.9 hPa 0.0 Km/h NNE 2.8 mm  18.6 °C 28.2 °C
Genova Albaro (GE) 14/08/18 21.48 22.1 °C 95 % 21.3 °C 1025.0 hPa 4.7 Km/h N 36.8 mm  19.5 °C 26.4 °C
Genova Erzelli (GE) 14/08/18 21.43 22.8 °C 82 % 19.6 °C 1011.1 hPa 8.0 Km/h N 50.0 mm  19.4 °C 26.8 °C
Gradisca d'Isonzo (GO) 14/08/18 21.49 19.9 °C 92 % 18.6 °C 1013.7 hPa 0.0 Km/h NE 0.0 mm  19.3 °C 29.8 °C
Iglesias (CI) 14/08/18 21.39 22.3 °C 77 % 18.1 °C 1016.1 hPa 0.0 Km/h SW 1.5 mm  21.8 °C 31.2 °C
Isera loc. Reviano (TN) 14/08/18 21.49 19.7 °C 81 % 16.3 °C 1013.1 hPa 3.2 Km/h W 0.5 mm  17.9 °C 24.9 °C
Isola d'Elba Marina di Campo (LI) 14/08/18 21.30 20.8 °C 89 % 19.0 °C 567.0 hPa 3.2 Km/h E 8.6 mm  19.9 °C 28.2 °C
Jesolo (VE) 08/08/18 15.00 30.6 °C 0 % 0.0 °C 1011.6 hPa 1.6 Km/h ESE 0.0 mm  -67.8 °C 31.0 °C
Lavis (TN) 14/08/18 21.45 19.1 °C 86 % 16.7 °C 1014.0 hPa 3.2 Km/h E 1.2 mm  19.1 °C 28.4 °C
Laxolo (BG) 14/08/18 21.46 18.3 °C 99 % 18.1 °C 1014.4 hPa 0.3 Km/h NNE 0.7 mm  16.2 °C 24.9 °C
Legnago (VR) 14/08/18 21.45 21.3 °C 96 % 20.7 °C 1013.7 hPa 0.0 Km/h SSW 5.2 mm  20.2 °C 25.3 °C
Lendinara2 (RO) 14/08/18 21.39 20.2 °C 84 % 17.4 °C 1014.0 hPa 3.2 Km/h E 7.1 mm  18.8 °C 26.7 °C
Lesmo (MB) 14/08/18 21.45 21.1 °C 80 % 17.5 °C 1012.7 hPa 4.8 Km/h E 0.0 mm  16.4 °C 27.3 °C
Loano (SV) 14/08/18 21.45 24.5 °C 72 % 19.1 °C 1011.2 hPa 5.0 Km/h N 0.0 mm  23.3 °C 27.9 °C
Lovere (BG) 14/08/18 21.39 22.0 °C 58 % 0.0 °C 1014.0 hPa 6.4 Km/h WSW 0.0 mm  18.8 °C 25.9 °C
Lugagnano (VR) 14/08/18 15.18 22.9 °C 87 % 20.6 °C 1009.8 hPa 0.0 Km/h SSE 3.4 mm  20.2 °C 23.4 °C
Lusiana Sciessere (VI) 14/08/18 21.39 15.9 °C 91 % 14.4 °C 1017.5 hPa 0.0 Km/h ENE 5.3 mm  15.8 °C 21.0 °C
Magnano (BI) 14/08/18 21.49 19.1 °C 97 % 18.6 °C 1008.2 hPa 0.0 Km/h NW 0.0 mm  15.8 °C 26.1 °C
Malnate San Salvatore (VA) 14/08/18 21.45 19.8 °C 91 % 18.3 °C 1012.9 hPa 0.0 Km/h NW 0.0 mm  16.4 °C 27.6 °C
Marano Vicentino2 (VI) 14/08/18 21.45 20.5 °C 82 % 17.3 °C 1014.0 hPa 0.0 Km/h E 1.6 mm  17.8 °C 24.7 °C
Margone (TN) 14/08/18 21.45 17.7 °C 72 % 12.6 °C 1015.3 hPa 5.2 Km/h NNW 0.2 mm  15.2 °C 24.2 °C
Marina di Montemarciano (AN) 14/08/18 21.40 22.8 °C 80 % 19.2 °C 1011.1 hPa 0.0 Km/h N 9.0 mm  20.4 °C 27.9 °C
Marostica Valle San Floriano (VI) 14/08/18 13.49 25.2 °C 74 % 20.0 °C 1011.9 hPa 0.0 Km/h SE 0.2 mm  17.6 °C 25.7 °C
Marta (VT) 14/08/18 21.45 20.2 °C 87 % 18.0 °C 1011.1 hPa 5.6 Km/h SW 39.4 mm  17.4 °C 25.8 °C
Masiera di Bagnacavallo (RA) 14/08/18 21.45 18.9 °C 92 % 17.6 °C 1009.5 hPa 0.0 Km/h --- 33.5 mm  18.7 °C 28.9 °C
Massone di Arco (TN) 14/08/18 21.48 22.0 °C 83 % 19.0 °C 1012.7 hPa 0.0 Km/h NNE 0.0 mm  20.0 °C 24.7 °C
Merlara (PD) 14/08/18 21.45 25.7 °C 79 % 21.8 °C 1012.7 hPa 0.0 Km/h --- 0.3 mm  18.6 °C 35.3 °C
Mezzana Bigli (PV) 14/08/18 21.45 23.5 °C 79 % 19.6 °C 1011.0 hPa 0.0 Km/h NNW 0.3 mm  18.6 °C 28.8 °C
Migliarino (FE) 14/08/18 21.48 21.5 °C 92 % 20.1 °C 1012.1 hPa 2.6 Km/h N 1.2 mm  20.9 °C 29.5 °C
Miglionico (MT) 14/08/18 21.40 19.8 °C 85 % 17.2 °C 1008.4 hPa 20.9 Km/h NW 0.0 mm  19.8 °C 33.5 °C
Miola di Piné (TN) 14/08/18 21.48 14.4 °C 94 % 13.4 °C 1013.9 hPa 4.8 Km/h E 11.3 mm  14.2 °C 22.4 °C
Mirabella Imbaccari (CT) 14/08/18 21.45 23.5 °C 66 % 16.8 °C 1011.4 hPa 0.0 Km/h SSE 0.2 mm  21.2 °C 31.2 °C
Mizzole (VR) 14/08/18 21.49 20.8 °C 84 % 18.0 °C 1013.9 hPa 0.7 Km/h WNW 2.6 mm  18.9 °C 24.2 °C
Molina (VR) 14/08/18 21.39 16.3 °C 93 % 15.2 °C 1016.9 hPa 0.0 Km/h N 8.4 mm  15.8 °C 20.7 °C
Monasterolo Torinese (TO) 14/08/18 21.40 21.9 °C 64 % 14.8 °C 1009.2 hPa 0.0 Km/h --- 0.0 mm  16.6 °C 26.3 °C
Moneglia loc. Casale (GE) 14/08/18 21.49 22.5 °C 72 % 17.2 °C 1013.0 hPa 6.4 Km/h N 45.6 mm  15.9 °C 26.4 °C
Moneglia loc. La Secca (GE) 14/08/18 21.49 23.6 °C 72 % 18.3 °C 1011.2 hPa 0.0 Km/h NE 36.2 mm  18.1 °C 29.0 °C
Mongrando San Michele (BI) 14/08/18 21.40 19.3 °C 84 % 16.6 °C 1012.2 hPa 1.6 Km/h WNW 0.4 mm  15.9 °C 26.8 °C
Monselice (PD) 14/08/18 21.47 22.8 °C 72 % 17.5 °C 1016.4 hPa 22.0 Km/h SE 0.0 mm  22.8 °C 22.8 °C
Monte Rufeno (VT) 14/08/18 21.49 0.0 °C 0 % 15.1 °C 0.0 hPa 0.0 Km/h --- 0.0 mm  0.0 °C 0.0 °C
Montebello Vicentino loc. Selva (VI) 14/08/18 21.49 20.0 °C 72 % 14.8 °C 1012.9 hPa 10.6 Km/h ENE 1.4 mm  18.5 °C 23.2 °C
Montecchio Maggiore Sant'Urbano (VI) 14/08/18 21.36 20.0 °C 72 % 14.7 °C 1018.8 hPa 20.8 Km/h NNE 0.5 mm  17.9 °C 24.0 °C
Monteforte d'Alpone2 (VR) 14/08/18 21.45 21.6 °C 82 % 18.4 °C 1012.2 hPa 22.5 Km/h ENE 1.2 mm  19.0 °C 24.8 °C
Montelabbate (PU) 14/08/18 21.39 21.6 °C 69 % 15.6 °C 1007.0 hPa 0.3 Km/h NNW 0.0 mm  21.6 °C 28.8 °C
Montespertoli (FI) 14/08/18 21.39 21.4 °C 69 % 15.5 °C 1014.8 hPa 0.0 Km/h N 1.5 mm  18.8 °C 27.7 °C
Montopoli in val d'Arno Loc. Capanne (PI) 14/08/18 21.35 23.2 °C 70 % 17.4 °C 1012.0 hPa 0.6 Km/h NNE 3.8 mm  18.8 °C 28.8 °C
Montorio (VR) 14/08/18 21.39 21.6 °C 87 % 19.3 °C 1015.5 hPa 16.9 Km/h ENE 1.5 mm  19.5 °C 24.2 °C
Montorso Vicentino (VI) 14/08/18 21.49 19.1 °C 87 % 16.8 °C 1013.8 hPa 1.6 Km/h ENE 1.2 mm  17.5 °C 22.8 °C
Morbegno (SO) 14/08/18 21.49 22.9 °C 72 % 17.6 °C 1011.9 hPa 0.0 Km/h SSE 0.0 mm  17.1 °C 28.2 °C
Muzzano (BI) 14/08/18 21.30 20.0 °C 74 % 15.2 °C 1011.0 hPa 6.4 Km/h NW 1.8 mm  17.1 °C 25.8 °C
Nichelino (TO) 14/08/18 21.40 26.4 °C 63 % 18.8 °C 1014.0 hPa 0.0 Km/h SE 0.0 mm  18.5 °C 29.8 °C
Novara (NO) 14/08/18 21.40 23.8 °C 77 % 19.5 °C 1011.5 hPa 0.0 Km/h --- 0.2 mm  17.2 °C 29.3 °C
Onara extraurbana (PD) 09/08/18 14.48 33.2 °C 60 % 24.4 °C 1015.1 hPa 0.4 Km/h W 0.0 mm  20.5 °C 33.2 °C
Oppeano (VR) 12/08/18 23.00 25.1 °C 69 % 19.0 °C 1011.6 hPa 0.0 Km/h --- 0.0 mm  23.1 °C 33.1 °C
Oristano (OR) 14/08/18 21.48 22.8 °C 85 % 20.2 °C 1012.9 hPa 0.0 Km/h SSW 9.8 mm  20.4 °C 29.8 °C
Orosei (NU) 14/08/18 21.45 21.3 °C 87 % 19.1 °C 1011.9 hPa 0.0 Km/h SE 38.2 mm  21.2 °C 33.4 °C
Ortonovo (SP) 14/08/18 21.49 21.9 °C 56 % 12.7 °C 1013.7 hPa 8.3 Km/h NE 11.1 mm  17.1 °C 29.5 °C
Orvieto (TR) 14/08/18 21.46 19.3 °C 86 % 16.9 °C 1011.1 hPa 0.0 Km/h S 30.8 mm  16.6 °C 24.9 °C
Ovaro loc. Liariis (UD) 14/08/18 21.35 17.1 °C 94 % 16.1 °C 1014.8 hPa 0.0 Km/h --- 2.8 mm  16.0 °C 26.1 °C
Padergnone (TN) 14/08/18 21.45 20.9 °C 78 % 17.0 °C 1013.1 hPa 0.0 Km/h N 0.2 mm  18.4 °C 25.8 °C
Parella (TO) 14/08/18 21.39 22.4 °C 82 % 19.2 °C 1010.0 hPa 0.0 Km/h NW 0.0 mm  17.7 °C 28.6 °C
Pastrengo (VR) 14/08/18 21.39 19.7 °C 91 % 18.2 °C 1015.9 hPa 1.2 Km/h N 5.1 mm  19.7 °C 24.6 °C
Pecetto Torinese (TO) 14/08/18 21.39 23.6 °C 70 % 17.8 °C 1011.7 hPa 0.0 Km/h SSE 0.0 mm  17.6 °C 30.9 °C
Pedemonte (VR) 14/08/18 21.40 21.0 °C 84 % 18.2 °C 1012.4 hPa 0.0 Km/h N 2.2 mm  19.4 °C 25.4 °C
Perarolo di Arcugnano (VI) 14/08/18 21.49 20.6 °C 77 % 16.4 °C 985.1 hPa 9.0 Km/h N 1.0 mm  19.3 °C 26.2 °C
Perugia San Mariano (PG) 14/08/18 21.35 20.2 °C 79 % 16.4 °C 1012.9 hPa 0.0 Km/h N 7.4 mm  18.1 °C 26.7 °C
Pescantina Are (VR) 14/08/18 18.53 24.6 °C 77 % 20.3 °C 1010.7 hPa 0.0 Km/h WSW 1.3 mm  19.9 °C 25.2 °C
Peschiera del Garda (VR) 14/08/18 21.40 21.4 °C 91 % 19.9 °C 1013.1 hPa 1.6 Km/h N 3.5 mm  20.2 °C 23.4 °C
Pian di Castagné (VR) 14/08/18 21.35 18.9 °C 90 % 17.3 °C 1013.1 hPa 12.9 Km/h ENE 0.5 mm  17.8 °C 21.3 °C
Pian di Castagné2 (VR) 14/08/18 21.39 18.8 °C 87 % 16.6 °C 1015.5 hPa 18.0 Km/h E 2.3 mm  17.4 °C 21.3 °C
Pila Valsesia (VC) 14/08/18 21.40 17.6 °C 89 % 15.8 °C 1011.1 hPa 0.0 Km/h N 0.4 mm  12.9 °C 25.8 °C
Piovà Massaia (AT) 14/08/18 21.48 23.6 °C 74 % 18.7 °C 1010.7 hPa 0.0 Km/h NE 0.2 mm  17.3 °C 27.8 °C
Piraino contr. Fiumara (ME) 14/08/18 21.40 21.8 °C 89 % 19.9 °C 1013.5 hPa 0.0 Km/h NE 0.8 mm  21.8 °C 30.9 °C
Pisa zona I Passi (PI) 14/08/18 21.49 23.3 °C 55 % 13.7 °C 1013.3 hPa 0.0 Km/h NE 2.0 mm  19.7 °C 28.2 °C
Pojana Maggiore Cagnano (VI) 14/08/18 21.40 21.3 °C 89 % 19.4 °C 1011.0 hPa 0.0 Km/h W 3.0 mm  19.5 °C 26.9 °C
Pomezia (RM) 14/08/18 21.48 22.6 °C 87 % 20.3 °C 1010.4 hPa 11.3 Km/h SSE 5.8 mm  20.5 °C 29.8 °C
Ponte San Nicolò (PD) 14/08/18 21.39 20.2 °C 88 % 18.2 °C 1013.4 hPa 3.2 Km/h N 2.5 mm  20.2 °C 27.6 °C
Ponte San Pellegrino (MO) 14/08/18 21.46 20.8 °C 92 % 19.4 °C 1016.0 hPa 0.0 Km/h 0.6 mm  20.3 °C 24.1 °C
Pordenone (PN) 14/08/18 21.40 19.9 °C 90 % 18.2 °C 1013.1 hPa 1.6 Km/h N 19.4 mm  19.8 °C 29.7 °C
Pozzolo Formigaro (AL) 14/08/18 21.46 23.1 °C 72 % 17.8 °C 1012.9 hPa 0.0 Km/h SE 0.0 mm  17.3 °C 30.6 °C
Pray (BI) 14/08/18 21.48 18.1 °C 89 % 16.3 °C 1012.4 hPa 2.0 Km/h W 0.2 mm  14.7 °C 26.6 °C
Rifugio Bocca di Selva (VR) 14/08/18 21.49 12.9 °C 82 % 9.9 °C 1013.3 hPa 25.7 Km/h ENE 2.6 mm  12.6 °C 15.8 °C
Rifugio Primaneve (VR) 14/08/18 21.38 10.9 °C 89 % 9.1 °C 1013.6 hPa 30.6 Km/h NE 1.5 mm  10.9 °C 14.8 °C
Rimini (RN) 14/08/18 21.40 20.4 °C 82 % 17.3 °C 1012.3 hPa 0.0 Km/h W 1.0 mm  19.3 °C 28.5 °C
Rimini Zona Palas (RN) 14/08/18 21.30 19.9 °C 88 % 17.8 °C 1012.1 hPa 6.4 Km/h WNW 3.8 mm  18.8 °C 27.9 °C
Rivalta sul Mincio (MN) 14/08/18 21.42 20.8 °C 90 % 19.1 °C 1012.6 hPa 2.0 Km/h SW 4.6 mm  20.1 °C 23.2 °C
Romano d'Ezzelino Fellette (VI) 14/08/18 21.48 19.6 °C 59 % 11.4 °C 1017.8 hPa 5.9 Km/h NE 15.0 mm  18.9 °C 27.6 °C
Ronciglione Centro (VT) 14/08/18 21.10 19.6 °C 85 % 17.0 °C 1016.0 hPa 1.9 Km/h ENE 22.4 mm  16.8 °C 23.6 °C
Ronciglione - Ponte Cuzzoli (VT) 14/08/18 21.45 19.1 °C 89 % 17.3 °C 1012.1 hPa 0.0 Km/h W 15.8 mm  16.3 °C 23.7 °C
Rosolina (RO) 14/08/18 21.35 20.9 °C 89 % 19.0 °C 1013.9 hPa 29.0 Km/h ESE 4.9 mm  19.3 °C 29.7 °C
S. Giovanni Ilarione2 (VR) 14/08/18 21.45 21.2 °C 81 % 17.8 °C 1013.5 hPa 6.4 Km/h ESE 1.0 mm  18.3 °C 24.5 °C
S. Giovanni Lupatoto (VR) 14/08/18 21.40 22.3 °C 90 % 20.6 °C 1012.9 hPa 0.0 Km/h --- 2.0 mm  20.4 °C 24.1 °C
S. Giovanni Rotondo (FG) 14/08/18 21.40 20.7 °C 76 % 16.3 °C 1010.7 hPa 0.0 Km/h NE 1.8 mm  20.3 °C 30.4 °C
S. Lorenzo di Vittorio Veneto (TV) 14/08/18 21.45 19.1 °C 88 % 17.1 °C 1014.1 hPa 1.6 Km/h WSW 0.8 mm  19.1 °C 25.1 °C
S. Lorenzo Nuovo (VT) 14/08/18 21.49 19.4 °C 81 % 16.1 °C 1010.7 hPa 0.0 Km/h ESE 31.9 mm  15.3 °C 23.1 °C
S. Maria di Zevio Loc. 3 Ponti (VR) 14/08/18 21.49 21.4 °C 91 % 20.0 °C 1015.1 hPa 3.0 Km/h E 1.8 mm  19.4 °C 23.4 °C
S. Maria Maddalena (RO) 14/08/18 21.44 21.3 °C 93 % 20.0 °C 1012.4 hPa 0.0 Km/h N 0.8 mm  20.5 °C 27.7 °C
S. Martino Lupari (PD) 14/08/18 21.40 20.2 °C 90 % 18.5 °C 914.2 hPa 1.6 Km/h ENE 1.0 mm  18.9 °C 27.6 °C
Sacile (PN) 14/08/18 21.35 19.8 °C 81 % 16.4 °C 1014.4 hPa 11.3 Km/h NNE 3.8 mm  19.6 °C 28.6 °C
Sacile2 (PN) 14/08/18 21.35 19.3 °C 89 % 17.4 °C 1014.3 hPa 5.1 Km/h ENE 6.9 mm  19.3 °C 28.9 °C
Salcedo (VI) 14/08/18 21.49 18.1 °C 81 % 14.8 °C 1015.2 hPa 7.6 Km/h NW 5.8 mm  18.1 °C 24.4 °C
San Benedetto del Tronto (AP) 14/08/18 20.30 22.1 °C 78 % 18.1 °C 1011.5 hPa 0.0 Km/h W 35.1 mm  19.9 °C 30.5 °C
San Cataldo (CL) 11/08/18 18.23 28.8 °C 50 % 17.3 °C 1017.8 hPa 0.0 Km/h NNW 0.0 mm  21.0 °C 32.5 °C
San Giovanni la Punta Trappeto (CT) 14/08/18 21.45 24.3 °C 67 % 17.8 °C 1013.1 hPa 0.0 Km/h ENE 2.4 mm  22.7 °C 33.1 °C
San Nazario (VI) 14/08/18 21.33 18.7 °C 94 % 17.7 °C 1013.1 hPa 0.0 Km/h N 16.3 mm  18.7 °C 28.4 °C
San Pietro di Rosà (VI) 14/08/18 21.48 20.1 °C 86 % 17.7 °C 1017.9 hPa 4.6 Km/h NE 0.6 mm  18.4 °C 28.1 °C
San Pietro in Cariano (VR) 14/08/18 21.39 20.2 °C 92 % 18.9 °C 1014.1 hPa 0.0 Km/h NE 3.0 mm  19.4 °C 24.7 °C
San Salvo3 (CH) 14/08/18 21.49 19.7 °C 85 % 17.1 °C 1008.4 hPa 3.2 Km/h SSW 26.2 mm  18.9 °C 32.0 °C
San Vito (CA) 14/08/18 21.49 29.8 °C 54 % 19.5 °C 1004.8 hPa 0.0 Km/h SE 0.0 mm  21.8 °C 38.3 °C
Santa Maria di Negrar (VR) 14/08/18 21.39 20.0 °C 90 % 18.3 °C 1014.4 hPa 0.0 Km/h WNW 1.8 mm  -999.9 °C 24.5 °C
Sarcedo (VI) 14/08/18 21.48 20.6 °C 83 % 17.6 °C 1013.1 hPa 3.6 Km/h NE 4.4 mm  18.7 °C 26.8 °C
Savelli (KR) 14/08/18 21.48 21.7 °C 47 % 9.9 °C 1010.9 hPa 0.4 Km/h SSE 3.6 mm  21.1 °C 29.3 °C
Schio (VI) 14/08/18 21.25 20.7 °C 79 % 16.9 °C 1015.6 hPa 4.8 Km/h S 2.0 mm  18.4 °C 26.0 °C
Schio Monte Magré (VI) 13/08/18 20.45 20.4 °C 92 % 19.1 °C 0.0 hPa 8.0 Km/h E 21.6 mm  19.2 °C 28.0 °C
Seremange Erzange (Moselle) 14/08/18 21.48 19.0 °C 81 % 15.7 °C 1019.1 hPa 3.2 Km/h W 0.0 mm  14.3 °C 23.0 °C
Sinnai (CA) 14/08/18 21.30 22.2 °C 76 % 17.8 °C 1013.5 hPa 1.6 Km/h WNW 0.0 mm  22.2 °C 33.7 °C
Soave Borgo Bassano (VR) 14/08/18 21.45 22.1 °C 79 % 18.2 °C 1013.7 hPa 18.0 Km/h NE 1.6 mm  19.4 °C 24.8 °C
Sona Loc. La Colombara (VR) 14/08/18 21.00 21.6 °C 91 % 20.0 °C 1008.6 hPa 3.0 Km/h W 2.0 mm  19.1 °C 23.4 °C
Soriso (NO) 08/08/18 01.40 21.4 °C 88 % 19.4 °C 1013.4 hPa 3.2 Km/h W 2.3 mm  21.4 °C 23.8 °C
Staranzano (GO) 14/08/18 21.30 20.3 °C 90 % 18.6 °C 1014.1 hPa 1.6 Km/h NNE 19.8 mm  19.9 °C 28.1 °C
Stiore - Monteveglio (BO) 14/08/18 21.49 18.5 °C 94 % 17.5 °C 1010.0 hPa 0.0 Km/h N 10.9 mm  18.2 °C 27.3 °C
Taio Mollaro (TN) 14/08/18 21.48 19.6 °C 78 % 15.7 °C 1016.6 hPa 0.0 Km/h E 1.0 mm  16.2 °C 26.5 °C
Tombolo (PD) 14/08/18 21.49 19.9 °C 88 % 17.8 °C 1014.4 hPa 4.5 Km/h NE 1.2 mm  19.1 °C 28.6 °C
Torino Regio Parco (TO) 14/08/18 21.51 25.1 °C 69 % 19.0 °C 1013.4 hPa 0.0 Km/h NE 0.2 mm  18.8 °C 30.0 °C
Torre Annunziata (NA) 14/08/18 21.45 24.3 °C 3 % -23.7 °C 1011.7 hPa 0.0 Km/h SSW 4.8 mm  23.2 °C 29.7 °C
Torri (FI) 14/08/18 21.30 20.1 °C 82 % 16.9 °C 1012.0 hPa 0.0 Km/h WSW 4.1 mm  17.4 °C 26.8 °C
Torrita di Siena (SI) 14/08/18 21.40 19.4 °C 91 % 17.9 °C 1013.0 hPa 8.0 Km/h W 0.0 mm  17.7 °C 24.9 °C
Tregnago Loc. Centro (VR) 14/08/18 21.45 18.6 °C 85 % 16.0 °C 1007.9 hPa 8.0 Km/h NE 1.6 mm  17.6 °C 21.4 °C
Trento (TN) 14/08/18 21.49 19.8 °C 82 % 16.7 °C 1012.6 hPa 11.3 Km/h ENE 6.0 mm  19.8 °C 28.6 °C
Treviso (TV) 14/08/18 21.49 18.5 °C 97 % 18.0 °C 1009.3 hPa 6.0 Km/h NNE 1.8 mm  17.6 °C 29.4 °C
Tuscania (VT) 14/08/18 16.15 25.8 °C 63 % 18.3 °C 1011.9 hPa 2.6 Km/h ENE 468.8 mm  18.9 °C 25.8 °C
Val Lastaro (VI) 14/08/18 21.44 14.4 °C 91 % 12.8 °C 1014.4 hPa 1.7 Km/h ENE 5.4 mm  12.5 °C 20.6 °C
Valdagno (VI) 14/08/18 21.49 19.9 °C 76 % 15.5 °C 994.4 hPa 5.0 Km/h W 0.6 mm  17.1 °C 24.8 °C
Valdobbiadene San Pietro di Barbozza (TV) 14/08/18 21.45 19.4 °C 84 % 16.7 °C 1013.0 hPa 4.8 Km/h NW 0.8 mm  18.2 °C 25.3 °C
Valentano (VT) 14/08/18 21.49 19.7 °C 83 % 16.7 °C 1010.1 hPa 14.5 Km/h ESE 33.8 mm  16.0 °C 22.7 °C
Valenza (AL) 14/08/18 21.40 24.2 °C 76 % 19.7 °C 1011.1 hPa 0.0 Km/h E 0.0 mm  17.9 °C 27.5 °C
Valli del Pasubio loc. Gisbenti (VI) 14/08/18 21.47 16.7 °C 97 % 16.2 °C 971.0 hPa 0.0 Km/h --- 6.3 mm  15.7 °C 23.0 °C
Varese Ligure (SP) 14/08/18 21.48 18.1 °C 34 % 2.0 °C 1010.0 hPa 5.0 Km/h N 12.0 mm  16.6 °C 25.1 °C
Vasto (CH) 14/08/18 21.47 19.8 °C 10 % -12.7 °C 1009.6 hPa 4.7 Km/h S 13.2 mm  19.7 °C 32.0 °C
Vattaro fraz. Pian dei Pradi (TN) 14/08/18 21.49 16.1 °C 94 % 15.1 °C 1014.2 hPa 1.9 Km/h E 4.2 mm  14.7 °C 21.9 °C
Vazzo Roveré Veronese (VR) 14/08/18 21.48 15.4 °C 84 % 12.8 °C 1010.9 hPa 14.5 Km/h NE 2.2 mm  15.0 °C 19.5 °C
Verona Bgo Venezia (iz3sly) (VR) 14/08/18 21.40 21.4 °C 85 % 18.8 °C 1012.1 hPa 0.0 Km/h SE 4.1 mm  19.5 °C 24.4 °C
Verona Cadidavid2 (VR) 14/08/18 21.40 21.4 °C 80 % 17.8 °C 1010.8 hPa 0.0 Km/h WSW 2.3 mm  19.7 °C 23.8 °C
Vicenza Moracchino (VI) 14/08/18 21.50 20.6 °C 80 % 17.0 °C 1013.5 hPa 0.0 Km/h NE 0.0 mm  18.9 °C 27.3 °C
Vicenza Pecori Giraldi (VI) 14/08/18 21.35 21.7 °C 96 % 21.1 °C 1015.6 hPa 7.2 Km/h NE 0.0 mm  20.0 °C 26.6 °C
Vicenza S. Lazzaro (VI) 14/08/18 21.49 20.9 °C 80 % 17.2 °C 1013.3 hPa 0.0 Km/h NE 0.2 mm  19.6 °C 26.2 °C
Vicenza San Gaetano (VI) 14/08/18 21.50 20.9 °C 83 % 17.9 °C 1014.2 hPa 0.0 Km/h WSW 0.2 mm  19.8 °C 26.9 °C
Vigardolo (VI) 14/08/18 21.39 20.7 °C 79 % 16.9 °C 1013.8 hPa 5.0 Km/h E 0.0 mm  19.5 °C 27.1 °C
Vigasio (VR) 14/08/18 20.50 22.2 °C 89 % 20.3 °C 1010.6 hPa 1.6 Km/h NNW 2.8 mm  21.2 °C 24.5 °C
Villabartolomea (VR) 14/08/18 21.30 21.0 °C 92 % 19.4 °C 1012.1 hPa 1.6 Km/h W 17.3 mm  19.7 °C 24.2 °C
Viozene Toria (CN) 14/08/18 21.49 14.5 °C 64 % 7.8 °C 1022.6 hPa 2.0 Km/h SW 2.1 mm  11.1 °C 22.0 °C
Viterbo Santa Barbara (VT) 14/08/18 21.50 19.8 °C 84 % 17.0 °C 1011.0 hPa 0.0 Km/h NE 28.8 mm  17.6 °C 24.2 °C
Viterbo Strada Bagni (VT) 14/08/18 21.50 20.5 °C 87 % 18.3 °C 1011.3 hPa 0.0 Km/h NW 22.4 mm  18.8 °C 26.3 °C
Vitorchiano Pallone (VT) 14/08/18 18.50 21.1 °C 85 % 18.4 °C 1010.0 hPa 4.8 Km/h N 19.5 mm  17.4 °C 23.6 °C
Vittorio Veneto Parco Fenderl (TV) 14/08/18 21.30 19.6 °C 92 % 18.2 °C 1014.8 hPa 1.6 Km/h NNW 0.5 mm  18.3 °C 28.2 °C
Volpago del Montello (TV) 14/08/18 21.30 19.4 °C 89 % 17.6 °C 1013.8 hPa 6.4 Km/h ENE 0.0 mm  17.8 °C 27.2 °C
 
(*) = Precipitazioni nelle ultime 24h.
Dati non aggiornati nell'ultima ora.
   
In collaborazione con: